Bergamot Ace — ZGAS5 — position and weather

sailwx.info

Track history (hours):
 
Tides and Currents Weather Stations Pressure Air Temp Water Temp Dewpoint Dewpoint Depression Visibility Wind Speed Wind Dir Waves Ship Positions

Bergamot Ace

Last reported at 2015-May-05 14:29 UTC. Time now 2015-May-05 16:19 UTC.
Position S 33°30' E 017°50'.

Length 186 m; draft 6.7 m.

Type: Cargo ship. MMSI: 319740000.

Date/timePositionNaut miles runAvg speedWind from/ knotsBaromVisibWave heightAir tempDewpointWater temp
2015-May-05 14:29S 33°30' E 017°50'3214.8
2015-May-05 12:21S 33°59' E 018°05'1113.5
2015-May-05 11:31S 34°09' E 018°10'6312.6
2015-May-05 06:33S 34°48' E 019°10'7610.6
2015-May-04 23:25S 34°45' E 020°42'1111.1
2015-May-04 22:25S 34°40' E 020°54'254 6.0
2015-May-03 04:22S 33°53' E 025°56'33 0.7
2015-May-01 06:07S 33°52' E 026°35'132 7.1
2015-Apr-30 11:28S 32°40' E 028°48'2511.0
2015-Apr-30 09:11S 32°22' E 029°08'1013.2
2015-Apr-30 08:24S 32°14' E 029°16'14011.7
2015-Apr-29 20:26S 30°20' E 030°52'1112.0
2015-Apr-29 19:33S 30°11' E 030°58'1414.1
2015-Apr-29 18:33S 29°59' E 031°06'7 6.6
2015-Apr-29 17:33S 29°53' E 031°03'1 0.7
2015-Apr-29 16:16S 29°52' E 031°02'0 0.0
2015-Apr-29 15:22S 29°52' E 031°02'0 0.0
2015-Apr-29 14:28S 29°52' E 031°02'0 0.0
2015-Apr-29 13:22S 29°52' E 031°02'0 0.0
2015-Apr-29 12:28S 29°52' E 031°02'0 0.0
2015-Apr-29 11:28S 29°52' E 031°02'0 0.0
2015-Apr-29 10:10S 29°52' E 031°02'0 0.0
2015-Apr-29 09:28S 29°52' E 031°02'0 0.0
2015-Apr-29 08:28S 29°52' E 031°02'0 0.0
2015-Apr-29 07:22S 29°52' E 031°02'0 0.0
2015-Apr-29 06:29S 29°52' E 031°02'2 2.1
2015-Apr-29 05:33S 29°51' E 031°04'4 4.0
2015-Apr-29 04:33S 29°50' E 031°08'4 3.3
2015-Apr-29 03:24S 29°50' E 031°13'1 0.9
2015-Apr-29 02:30S 29°50' E 031°14'1 0.8
2015-Apr-29 01:24S 29°50' E 031°15'1 0.8
2015-Apr-29 00:30S 29°50' E 031°15'1 0.5
2015-Apr-28 23:30S 29°50' E 031°16'2 1.7
2015-Apr-28 22:33S 29°52' E 031°16'7 7.1
2015-Apr-28 21:33S 29°58' E 031°13'2 1.9
2015-Apr-28 20:33S 29°60' E 031°15'3 2.1
2015-Apr-28 19:15S 30°01' E 031°18'1 1.9
2015-Apr-28 18:33S 30°02' E 031°19'2 1.6
2015-Apr-28 17:27S 30°03' E 031°20'2 2.6
2015-Apr-28 16:33S 30°01' E 031°20'1010.2
2015-Apr-28 15:33S 29°51' E 031°16'7 6.7
2015-Apr-28 14:28S 29°45' E 031°13'2 1.3
2015-Apr-28 13:16S 29°46' E 031°14'1 1.3
2015-Apr-28 12:28S 29°47' E 031°15'1 1.1
2015-Apr-28 11:28S 29°48' E 031°15'1 1.0
2015-Apr-28 10:22S 29°49' E 031°16'2 1.4
2015-Apr-28 09:16S 29°50' E 031°17'2 1.7
2015-Apr-28 08:16S 29°52' E 031°17'1 1.7
2015-Apr-28 07:28S 29°53' E 031°17'1 1.2
2015-Apr-28 06:33S 29°54' E 031°16'9 9.1
2015-Apr-28 05:33S 29°45' E 031°18'3 3.1
2015-Apr-28 04:25S 29°41' E 031°18'2 1.6
2015-Apr-28 03:14S 29°43' E 031°18'1 1.8
2015-Apr-28 02:26S 29°45' E 031°17'2 1.9
2015-Apr-28 01:32S 29°46' E 031°17'2 1.8
2015-Apr-28 00:31S 29°48' E 031°16'2 1.6
2015-Apr-27 23:31S 29°50' E 031°17'1 1.4
2015-Apr-27 22:33S 29°51' E 031°16'8 7.6
2015-Apr-27 21:33S 29°57' E 031°10'1010.1
2015-Apr-27 20:33S 30°03' E 031°19'4 4.4
2015-Apr-27 19:33S 30°08' E 031°17'1413.6
2015-Apr-27 18:31S 30°09' E 031°01'  
Track history (hours):
 
Tides and Currents Weather Stations Pressure Air Temp Water Temp Dewpoint Dewpoint Depression Visibility Wind Speed Wind Dir Waves Ship Positions

Bergamot Ace

Last reported at 2015-May-05 14:29 UTC. Time now 2015-May-05 16:19 UTC.
Position S 33°30' E 017°50'.

Length 186 m; draft 6.7 m.

Type: Cargo ship. MMSI: 319740000.

Date/timePositionNaut miles runAvg speedWind from/ knotsBaromVisibWave heightAir tempDewpointWater temp
2015-May-05 14:29S 33°30' E 017°50'3214.8
2015-May-05 12:21S 33°59' E 018°05'1113.5
2015-May-05 11:31S 34°09' E 018°10'6312.6
2015-May-05 06:33S 34°48' E 019°10'7610.6
2015-May-04 23:25S 34°45' E 020°42'1111.1
2015-May-04 22:25S 34°40' E 020°54'254 6.0
2015-May-03 04:22S 33°53' E 025°56'33 0.7
2015-May-01 06:07S 33°52' E 026°35'132 7.1
2015-Apr-30 11:28S 32°40' E 028°48'2511.0
2015-Apr-30 09:11S 32°22' E 029°08'1013.2
2015-Apr-30 08:24S 32°14' E 029°16'14011.7
2015-Apr-29 20:26S 30°20' E 030°52'1112.0
2015-Apr-29 19:33S 30°11' E 030°58'1414.1
2015-Apr-29 18:33S 29°59' E 031°06'7 6.6
2015-Apr-29 17:33S 29°53' E 031°03'1 0.7
2015-Apr-29 16:16S 29°52' E 031°02'0 0.0
2015-Apr-29 15:22S 29°52' E 031°02'0 0.0
2015-Apr-29 14:28S 29°52' E 031°02'0 0.0
2015-Apr-29 13:22S 29°52' E 031°02'0 0.0
2015-Apr-29 12:28S 29°52' E 031°02'0 0.0
2015-Apr-29 11:28S 29°52' E 031°02'0 0.0
2015-Apr-29 10:10S 29°52' E 031°02'0 0.0
2015-Apr-29 09:28S 29°52' E 031°02'0 0.0
2015-Apr-29 08:28S 29°52' E 031°02'0 0.0
2015-Apr-29 07:22S 29°52' E 031°02'0 0.0
2015-Apr-29 06:29S 29°52' E 031°02'2 2.1
2015-Apr-29 05:33S 29°51' E 031°04'4 4.0
2015-Apr-29 04:33S 29°50' E 031°08'4 3.3
2015-Apr-29 03:24S 29°50' E 031°13'1 0.9
2015-Apr-29 02:30S 29°50' E 031°14'1 0.8
2015-Apr-29 01:24S 29°50' E 031°15'1 0.8
2015-Apr-29 00:30S 29°50' E 031°15'1 0.5
2015-Apr-28 23:30S 29°50' E 031°16'2 1.7
2015-Apr-28 22:33S 29°52' E 031°16'7 7.1
2015-Apr-28 21:33S 29°58' E 031°13'2 1.9
2015-Apr-28 20:33S 29°60' E 031°15'3 2.1
2015-Apr-28 19:15S 30°01' E 031°18'1 1.9
2015-Apr-28 18:33S 30°02' E 031°19'2 1.6
2015-Apr-28 17:27S 30°03' E 031°20'2 2.6
2015-Apr-28 16:33S 30°01' E 031°20'1010.2
2015-Apr-28 15:33S 29°51' E 031°16'7 6.7
2015-Apr-28 14:28S 29°45' E 031°13'2 1.3
2015-Apr-28 13:16S 29°46' E 031°14'1 1.3
2015-Apr-28 12:28S 29°47' E 031°15'1 1.1
2015-Apr-28 11:28S 29°48' E 031°15'1 1.0
2015-Apr-28 10:22S 29°49' E 031°16'2 1.4
2015-Apr-28 09:16S 29°50' E 031°17'2 1.7
2015-Apr-28 08:16S 29°52' E 031°17'1 1.7
2015-Apr-28 07:28S 29°53' E 031°17'1 1.2
2015-Apr-28 06:33S 29°54' E 031°16'9 9.1
2015-Apr-28 05:33S 29°45' E 031°18'3 3.1
2015-Apr-28 04:25S 29°41' E 031°18'2 1.6
2015-Apr-28 03:14S 29°43' E 031°18'1 1.8
2015-Apr-28 02:26S 29°45' E 031°17'2 1.9
2015-Apr-28 01:32S 29°46' E 031°17'2 1.8
2015-Apr-28 00:31S 29°48' E 031°16'2 1.6
2015-Apr-27 23:31S 29°50' E 031°17'1 1.4
2015-Apr-27 22:33S 29°51' E 031°16'8 7.6
2015-Apr-27 21:33S 29°57' E 031°10'1010.1
2015-Apr-27 20:33S 30°03' E 031°19'4 4.4
2015-Apr-27 19:33S 30°08' E 031°17'1413.6
2015-Apr-27 18:31S 30°09' E 031°01'  

Dump ship's entire track history